Cullasaja, North Carolina
Current Conditions -  °F | °C
As of 9:55 PM on Thursday 18 Dec 2014 (Local Time) from KRHP Reporting Station
Overcast Overcast  
Wind Chill: 42°   Ceiling: 4000
Heat Index: 42°   Visibility: 10mi
Dew Point: 33°   Wind: 3mph
Humidity: 70%   Direction: 270°W
Pressure: 30.13"   Gusts: NA
Location:  35.1737°N, 83.4215°W
Report Text: KRHP 190255Z AUTO 27003KT 10SM OVC040 06/00 A3013 RMK AO2 T00550004
Loading
Personal Weather Stations






























Interactive Weather Map New forecast layout! Learn more

10-Day Weather Forecast

Advertisements
Track Severe Weather on mobile